Lakehurst NAES /Maxfield Field
KNEL : now visible

Airfield :











YOU CAN JOIN US ON...

 
LOGIN :

Register | Disclaimer

   EN    FR    IT 

 









Legend :    VFR   Marginal VFR   IFR   Intensive IFR   Very Intensive IFR
Visi :
Ceiling :
>= 8 km
>= 3000ft
5 to 8 km
1000 to 3000 ft
1500m to 5 km
500 to 1000 ft
800 to 1500m
200 to 500 ft
< 800m
< 200 ft
Symbols :   Thunderstorms  Fog  Heavy snow  Heavy precipitations  Wind > 20 kt






- Airport Elevation : 101 ft
- IATA code : NEL


KNEL - Lakehurst NAES /Maxfield Field

CURRENT METAR :
  • 250800Z AUTO 22006KT OVC060 04/M02 A2982 RMK AO2 SLP098 T00391022 $

EXPIRED METARs :
  • 250700Z AUTO 21007KT OVC060 04/M03 A2981 RMK AO2 SLP093 T00391028 $
  • 250600Z AUTO 19006KT OVC060 03/M03 A2982 RMK AO2 SLP096 T00331028 10033 21017 58010 $

TAF N/A
KZNY FIR / North America



MET'MAP, your aeronautical weather chart ! - Copyright ORBIFLY December 2007 - Disclaimer

ORBIFLY MET'MAP TEAM :

Programming & Development : Alexandra Zaïnal
Original concept : Baudouin d'Aumeries
Technical & hardware support : Manuel Goepfert
Assistance : Marc-Olivier Méhu

Contact : metmap@orbifly.com




SOURCES & CREDITS :

   NOAA       Earth
Advisory